sensor_id;sensor_type;location;lat;lon;timestamp;P1;durP1;ratioP1;P2;durP2;ratioP2
6850;SDS011;3464;42.728;23.296;2024-03-02T00:00:10;55.10;;;30.53;;
6850;SDS011;3464;42.728;23.296;2024-03-02T00:02:40;55.13;;;29.47;;
6850;SDS011;3464;42.728;23.296;2024-03-02T00:05:10;53.43;;;31.17;;
6850;SDS011;3464;42.728;23.296;2024-03-02T00:07:35;57.87;;;32.57;;
6850;SDS011;3464;42.728;23.296;2024-03-02T00:10:05;53.90;;;30.53;;
6850;SDS011;3464;42.728;23.296;2024-03-02T00:12:30;56.37;;;29.30;;
6850;SDS011;3464;42.728;23.296;2024-03-02T00:14:57;53.93;;;30.20;;
6850;SDS011;3464;42.728;23.296;2024-03-02T00:17:25;55.17;;;28.97;;
6850;SDS011;3464;42.728;23.296;2024-03-02T00:19:52;54.73;;;30.70;;
6850;SDS011;3464;42.728;23.296;2024-03-02T00:22:18;54.07;;;28.90;;
6850;SDS011;3464;42.728;23.296;2024-03-02T00:24:46;54.60;;;29.10;;
6850;SDS011;3464;42.728;23.296;2024-03-02T00:27:14;51.40;;;29.70;;
6850;SDS011;3464;42.728;23.296;2024-03-02T00:29:40;55.50;;;29.50;;
6850;SDS011;3464;42.728;23.296;2024-03-02T00:32:11;51.23;;;28.63;;
6850;SDS011;3464;42.728;23.296;2024-03-02T00:34:38;59.50;;;30.27;;
6850;SDS011;3464;42.728;23.296;2024-03-02T00:37:05;55.10;;;28.70;;
6850;SDS011;3464;42.728;23.296;2024-03-02T00:39:31;52.30;;;29.57;;
6850;SDS011;3464;42.728;23.296;2024-03-02T00:41:59;53.00;;;28.70;;
6850;SDS011;3464;42.728;23.296;2024-03-02T00:44:25;49.77;;;28.40;;
6850;SDS011;3464;42.728;23.296;2024-03-02T00:46:53;52.60;;;28.17;;
6850;SDS011;3464;42.728;23.296;2024-03-02T00:49:21;59.53;;;29.75;;
6850;SDS011;3464;42.728;23.296;2024-03-02T00:51:49;52.87;;;30.20;;
6850;SDS011;3464;42.728;23.296;2024-03-02T00:54:20;53.77;;;29.57;;
6850;SDS011;3464;42.728;23.296;2024-03-02T00:56:46;51.53;;;30.20;;
6850;SDS011;3464;42.728;23.296;2024-03-02T00:59:13;52.10;;;29.73;;
6850;SDS011;3464;42.728;23.296;2024-03-02T01:01:39;55.40;;;29.60;;
6850;SDS011;3464;42.728;23.296;2024-03-02T01:04:06;53.83;;;30.53;;
6850;SDS011;3464;42.728;23.296;2024-03-02T01:06:34;54.20;;;29.83;;
6850;SDS011;3464;42.728;23.296;2024-03-02T01:09:00;51.43;;;29.03;;
6850;SDS011;3464;42.728;23.296;2024-03-02T01:11:28;55.20;;;30.90;;
6850;SDS011;3464;42.728;23.296;2024-03-02T01:13:55;55.43;;;28.93;;
6850;SDS011;3464;42.728;23.296;2024-03-02T01:16:22;53.27;;;29.80;;
6850;SDS011;3464;42.728;23.296;2024-03-02T01:18:50;59.73;;;31.30;;
6850;SDS011;3464;42.728;23.296;2024-03-02T01:21:17;57.03;;;31.17;;
6850;SDS011;3464;42.728;23.296;2024-03-02T01:23:44;51.20;;;29.83;;
6850;SDS011;3464;42.728;23.296;2024-03-02T01:26:11;60.97;;;30.67;;
6850;SDS011;3464;42.728;23.296;2024-03-02T01:28:38;51.23;;;27.67;;
6850;SDS011;3464;42.728;23.296;2024-03-02T01:31:07;50.30;;;28.80;;
6850;SDS011;3464;42.728;23.296;2024-03-02T01:33:34;52.97;;;29.93;;
6850;SDS011;3464;42.728;23.296;2024-03-02T01:36:01;49.93;;;28.63;;
6850;SDS011;3464;42.728;23.296;2024-03-02T01:38:28;57.60;;;30.67;;
6850;SDS011;3464;42.728;23.296;2024-03-02T01:40:54;54.73;;;30.37;;
6850;SDS011;3464;42.728;23.296;2024-03-02T01:43:23;53.40;;;28.43;;
6850;SDS011;3464;42.728;23.296;2024-03-02T01:45:49;50.47;;;26.77;;
6850;SDS011;3464;42.728;23.296;2024-03-02T01:48:16;51.90;;;28.95;;
6850;SDS011;3464;42.728;23.296;2024-03-02T01:50:42;58.17;;;29.17;;
6850;SDS011;3464;42.728;23.296;2024-03-02T01:53:09;53.53;;;29.67;;
6850;SDS011;3464;42.728;23.296;2024-03-02T01:55:36;54.43;;;28.93;;
6850;SDS011;3464;42.728;23.296;2024-03-02T01:58:02;56.43;;;28.83;;
6850;SDS011;3464;42.728;23.296;2024-03-02T02:00:29;55.27;;;30.57;;
6850;SDS011;3464;42.728;23.296;2024-03-02T02:02:56;58.27;;;29.50;;
6850;SDS011;3464;42.728;23.296;2024-03-02T02:05:22;50.12;;;27.50;;
6850;SDS011;3464;42.728;23.296;2024-03-02T02:07:49;53.33;;;29.80;;
6850;SDS011;3464;42.728;23.296;2024-03-02T02:10:15;56.53;;;29.60;;
6850;SDS011;3464;42.728;23.296;2024-03-02T02:12:42;54.87;;;28.20;;
6850;SDS011;3464;42.728;23.296;2024-03-02T02:17:48;58.73;;;30.77;;
6850;SDS011;3464;42.728;23.296;2024-03-02T02:20:15;54.15;;;29.42;;
6850;SDS011;3464;42.728;23.296;2024-03-02T02:22:52;64.50;;;35.17;;
6850;SDS011;3464;42.728;23.296;2024-03-02T02:25:23;50.88;;;29.60;;
6850;SDS011;3464;42.728;23.296;2024-03-02T02:27:51;54.50;;;30.50;;
6850;SDS011;3464;42.728;23.296;2024-03-02T02:30:23;49.70;;;27.00;;
6850;SDS011;3464;42.728;23.296;2024-03-02T02:32:50;57.27;;;29.70;;
6850;SDS011;3464;42.728;23.296;2024-03-02T02:35:17;55.22;;;29.12;;
6850;SDS011;3464;42.728;23.296;2024-03-02T02:37:44;55.27;;;29.50;;
6850;SDS011;3464;42.728;23.296;2024-03-02T02:40:10;56.33;;;29.85;;
6850;SDS011;3464;42.728;23.296;2024-03-02T02:42:38;57.93;;;30.63;;
6850;SDS011;3464;42.728;23.296;2024-03-02T02:45:06;59.30;;;31.10;;
6850;SDS011;3464;42.728;23.296;2024-03-02T02:47:32;51.53;;;28.83;;
6850;SDS011;3464;42.728;23.296;2024-03-02T02:50:01;55.90;;;30.47;;
6850;SDS011;3464;42.728;23.296;2024-03-02T02:52:30;51.47;;;29.50;;
6850;SDS011;3464;42.728;23.296;2024-03-02T02:54:54;52.60;;;28.87;;
6850;SDS011;3464;42.728;23.296;2024-03-02T02:57:20;53.13;;;28.35;;
6850;SDS011;3464;42.728;23.296;2024-03-02T02:59:47;50.07;;;27.50;;
6850;SDS011;3464;42.728;23.296;2024-03-02T03:02:14;51.77;;;27.83;;
6850;SDS011;3464;42.728;23.296;2024-03-02T03:04:42;57.60;;;28.70;;
6850;SDS011;3464;42.728;23.296;2024-03-02T03:07:08;56.87;;;27.70;;
6850;SDS011;3464;42.728;23.296;2024-03-02T03:09:38;51.80;;;27.40;;
6850;SDS011;3464;42.728;23.296;2024-03-02T03:12:05;54.37;;;28.93;;
6850;SDS011;3464;42.728;23.296;2024-03-02T03:14:31;53.13;;;27.00;;
6850;SDS011;3464;42.728;23.296;2024-03-02T03:16:58;46.92;;;26.45;;
6850;SDS011;3464;42.728;23.296;2024-03-02T03:19:25;49.27;;;26.30;;
6850;SDS011;3464;42.728;23.296;2024-03-02T03:21:52;49.10;;;26.63;;
6850;SDS011;3464;42.728;23.296;2024-03-02T03:24:18;49.90;;;26.93;;
6850;SDS011;3464;42.728;23.296;2024-03-02T03:26:45;51.73;;;27.20;;
6850;SDS011;3464;42.728;23.296;2024-03-02T03:29:12;53.70;;;27.30;;
6850;SDS011;3464;42.728;23.296;2024-03-02T03:31:39;49.07;;;27.77;;
6850;SDS011;3464;42.728;23.296;2024-03-02T03:34:06;52.70;;;27.63;;
6850;SDS011;3464;42.728;23.296;2024-03-02T03:36:34;48.53;;;26.37;;
6850;SDS011;3464;42.728;23.296;2024-03-02T03:39:01;50.57;;;27.90;;
6850;SDS011;3464;42.728;23.296;2024-03-02T03:41:28;51.92;;;27.45;;
6850;SDS011;3464;42.728;23.296;2024-03-02T03:43:54;50.50;;;27.53;;
6850;SDS011;3464;42.728;23.296;2024-03-02T03:46:21;48.77;;;27.37;;
6850;SDS011;3464;42.728;23.296;2024-03-02T03:48:47;52.97;;;27.90;;
6850;SDS011;3464;42.728;23.296;2024-03-02T03:51:14;57.33;;;29.05;;
6850;SDS011;3464;42.728;23.296;2024-03-02T03:53:41;50.67;;;27.33;;
6850;SDS011;3464;42.728;23.296;2024-03-02T03:56:08;50.67;;;26.53;;
6850;SDS011;3464;42.728;23.296;2024-03-02T03:58:34;56.87;;;27.67;;
6850;SDS011;3464;42.728;23.296;2024-03-02T04:01:01;54.40;;;28.20;;
6850;SDS011;3464;42.728;23.296;2024-03-02T04:03:28;52.90;;;27.27;;
6850;SDS011;3464;42.728;23.296;2024-03-02T04:05:55;50.60;;;28.00;;
6850;SDS011;3464;42.728;23.296;2024-03-02T04:08:22;56.10;;;28.90;;
6850;SDS011;3464;42.728;23.296;2024-03-02T04:10:48;57.10;;;29.03;;
6850;SDS011;3464;42.728;23.296;2024-03-02T04:13:15;53.87;;;29.20;;
6850;SDS011;3464;42.728;23.296;2024-03-02T04:15:41;57.70;;;30.00;;
6850;SDS011;3464;42.728;23.296;2024-03-02T04:18:08;61.13;;;28.90;;
6850;SDS011;3464;42.728;23.296;2024-03-02T04:20:34;54.50;;;28.27;;
6850;SDS011;3464;42.728;23.296;2024-03-02T04:23:02;54.35;;;29.10;;
6850;SDS011;3464;42.728;23.296;2024-03-02T04:25:28;58.23;;;30.07;;
6850;SDS011;3464;42.728;23.296;2024-03-02T04:27:56;55.67;;;30.00;;
6850;SDS011;3464;42.728;23.296;2024-03-02T04:30:22;51.47;;;29.73;;
6850;SDS011;3464;42.728;23.296;2024-03-02T04:32:49;52.30;;;27.60;;
6850;SDS011;3464;42.728;23.296;2024-03-02T04:35:16;58.87;;;28.97;;
6850;SDS011;3464;42.728;23.296;2024-03-02T04:37:42;46.47;;;25.43;;
6850;SDS011;3464;42.728;23.296;2024-03-02T04:40:10;52.00;;;27.90;;
6850;SDS011;3464;42.728;23.296;2024-03-02T04:42:37;51.40;;;28.13;;
6850;SDS011;3464;42.728;23.296;2024-03-02T04:45:03;55.50;;;27.83;;
6850;SDS011;3464;42.728;23.296;2024-03-02T04:47:30;54.53;;;28.90;;
6850;SDS011;3464;42.728;23.296;2024-03-02T04:49:57;53.13;;;28.37;;
6850;SDS011;3464;42.728;23.296;2024-03-02T04:52:24;56.40;;;29.80;;
6850;SDS011;3464;42.728;23.296;2024-03-02T04:54:50;58.40;;;29.40;;
6850;SDS011;3464;42.728;23.296;2024-03-02T04:57:27;51.77;;;28.77;;
6850;SDS011;3464;42.728;23.296;2024-03-02T04:59:53;54.73;;;29.93;;
6850;SDS011;3464;42.728;23.296;2024-03-02T05:02:20;58.60;;;29.60;;
6850;SDS011;3464;42.728;23.296;2024-03-02T05:04:46;56.63;;;27.90;;
6850;SDS011;3464;42.728;23.296;2024-03-02T05:07:13;54.67;;;29.10;;
6850;SDS011;3464;42.728;23.296;2024-03-02T05:09:40;52.40;;;29.07;;
6850;SDS011;3464;42.728;23.296;2024-03-02T05:12:06;54.63;;;29.40;;
6850;SDS011;3464;42.728;23.296;2024-03-02T05:14:49;56.20;;;29.70;;
6850;SDS011;3464;42.728;23.296;2024-03-02T05:17:16;55.63;;;29.37;;
6850;SDS011;3464;42.728;23.296;2024-03-02T05:19:43;57.53;;;28.73;;
6850;SDS011;3464;42.728;23.296;2024-03-02T05:22:11;56.30;;;29.02;;
6850;SDS011;3464;42.728;23.296;2024-03-02T05:24:39;55.73;;;29.10;;
6850;SDS011;3464;42.728;23.296;2024-03-02T05:27:06;57.03;;;29.37;;
6850;SDS011;3464;42.728;23.296;2024-03-02T05:29:33;58.20;;;28.70;;
6850;SDS011;3464;42.728;23.296;2024-03-02T05:32:02;57.00;;;28.40;;
6850;SDS011;3464;42.728;23.296;2024-03-02T05:34:29;62.77;;;30.60;;
6850;SDS011;3464;42.728;23.296;2024-03-02T05:36:57;61.80;;;28.90;;
6850;SDS011;3464;42.728;23.296;2024-03-02T05:39:24;57.97;;;30.00;;
6850;SDS011;3464;42.728;23.296;2024-03-02T05:41:50;60.43;;;30.17;;
6850;SDS011;3464;42.728;23.296;2024-03-02T05:44:17;60.90;;;30.30;;
6850;SDS011;3464;42.728;23.296;2024-03-02T05:46:44;53.87;;;29.40;;
6850;SDS011;3464;42.728;23.296;2024-03-02T06:07:49;58.90;;;29.97;;
6850;SDS011;3464;42.728;23.296;2024-03-02T06:10:15;67.17;;;34.73;;
6850;SDS011;3464;42.728;23.296;2024-03-02T06:12:42;60.50;;;31.80;;
6850;SDS011;3464;42.728;23.296;2024-03-02T06:15:09;66.20;;;31.23;;
6850;SDS011;3464;42.728;23.296;2024-03-02T06:17:36;62.97;;;31.50;;
6850;SDS011;3464;42.728;23.296;2024-03-02T06:20:04;61.75;;;32.38;;
6850;SDS011;3464;42.728;23.296;2024-03-02T06:22:34;61.70;;;31.03;;
6850;SDS011;3464;42.728;23.296;2024-03-02T06:25:01;62.37;;;30.80;;
6850;SDS011;3464;42.728;23.296;2024-03-02T06:27:29;62.17;;;30.10;;
6850;SDS011;3464;42.728;23.296;2024-03-02T06:29:57;62.83;;;30.10;;
6850;SDS011;3464;42.728;23.296;2024-03-02T06:32:23;64.20;;;32.57;;
6850;SDS011;3464;42.728;23.296;2024-03-02T06:34:50;64.67;;;31.97;;
6850;SDS011;3464;42.728;23.296;2024-03-02T06:37:17;67.28;;;33.30;;
6850;SDS011;3464;42.728;23.296;2024-03-02T06:39:44;70.87;;;33.20;;
6850;SDS011;3464;42.728;23.296;2024-03-02T06:42:12;65.03;;;33.23;;
6850;SDS011;3464;42.728;23.296;2024-03-02T06:44:38;67.73;;;32.10;;
6850;SDS011;3464;42.728;23.296;2024-03-02T06:47:05;70.90;;;32.60;;
6850;SDS011;3464;42.728;23.296;2024-03-02T06:49:32;61.90;;;32.57;;
6850;SDS011;3464;42.728;23.296;2024-03-02T06:51:59;73.17;;;32.80;;
6850;SDS011;3464;42.728;23.296;2024-03-02T06:54:25;64.17;;;29.90;;
6850;SDS011;3464;42.728;23.296;2024-03-02T06:56:52;69.40;;;32.73;;
6850;SDS011;3464;42.728;23.296;2024-03-02T06:59:21;66.62;;;32.20;;
6850;SDS011;3464;42.728;23.296;2024-03-02T07:01:47;65.80;;;31.13;;
6850;SDS011;3464;42.728;23.296;2024-03-02T07:04:14;61.63;;;30.30;;
6850;SDS011;3464;42.728;23.296;2024-03-02T07:06:40;69.33;;;32.87;;
6850;SDS011;3464;42.728;23.296;2024-03-02T07:09:16;64.55;;;30.53;;
6850;SDS011;3464;42.728;23.296;2024-03-02T07:11:44;63.67;;;31.17;;
6850;SDS011;3464;42.728;23.296;2024-03-02T07:14:12;60.00;;;29.67;;
6850;SDS011;3464;42.728;23.296;2024-03-02T07:16:38;63.00;;;30.60;;
6850;SDS011;3464;42.728;23.296;2024-03-02T07:19:06;64.40;;;30.20;;
6850;SDS011;3464;42.728;23.296;2024-03-02T07:21:34;66.33;;;32.80;;
6850;SDS011;3464;42.728;23.296;2024-03-02T07:24:00;62.37;;;31.47;;
6850;SDS011;3464;42.728;23.296;2024-03-02T07:26:29;61.73;;;31.17;;
6850;SDS011;3464;42.728;23.296;2024-03-02T07:28:55;61.50;;;30.77;;
6850;SDS011;3464;42.728;23.296;2024-03-02T07:31:22;67.03;;;31.20;;
6850;SDS011;3464;42.728;23.296;2024-03-02T07:33:48;57.97;;;30.93;;
6850;SDS011;3464;42.728;23.296;2024-03-02T07:36:15;68.20;;;32.83;;
6850;SDS011;3464;42.728;23.296;2024-03-02T07:38:42;64.47;;;33.93;;
6850;SDS011;3464;42.728;23.296;2024-03-02T07:41:09;58.63;;;28.90;;
6850;SDS011;3464;42.728;23.296;2024-03-02T07:43:36;71.80;;;34.00;;
6850;SDS011;3464;42.728;23.296;2024-03-02T07:46:03;64.33;;;30.57;;
6850;SDS011;3464;42.728;23.296;2024-03-02T07:48:36;63.43;;;31.70;;
6850;SDS011;3464;42.728;23.296;2024-03-02T07:51:02;63.97;;;30.00;;
6850;SDS011;3464;42.728;23.296;2024-03-02T07:53:29;62.83;;;26.77;;
6850;SDS011;3464;42.728;23.296;2024-03-02T07:55:55;56.30;;;26.57;;
6850;SDS011;3464;42.728;23.296;2024-03-02T07:58:22;56.77;;;28.53;;
6850;SDS011;3464;42.728;23.296;2024-03-02T08:00:49;56.43;;;27.40;;
6850;SDS011;3464;42.728;23.296;2024-03-02T08:03:23;54.83;;;28.00;;
6850;SDS011;3464;42.728;23.296;2024-03-02T08:05:52;59.70;;;27.10;;
6850;SDS011;3464;42.728;23.296;2024-03-02T08:08:19;59.43;;;28.40;;
6850;SDS011;3464;42.728;23.296;2024-03-02T08:10:46;62.83;;;30.10;;
6850;SDS011;3464;42.728;23.296;2024-03-02T08:13:13;57.33;;;29.50;;
6850;SDS011;3464;42.728;23.296;2024-03-02T08:15:40;59.97;;;29.77;;
6850;SDS011;3464;42.728;23.296;2024-03-02T08:18:08;74.47;;;39.53;;
6850;SDS011;3464;42.728;23.296;2024-03-02T08:20:35;58.40;;;29.83;;
6850;SDS011;3464;42.728;23.296;2024-03-02T08:23:02;55.33;;;29.30;;
6850;SDS011;3464;42.728;23.296;2024-03-02T08:25:31;59.23;;;28.50;;
6850;SDS011;3464;42.728;23.296;2024-03-02T08:27:59;56.80;;;29.30;;
6850;SDS011;3464;42.728;23.296;2024-03-02T08:30:30;58.27;;;28.37;;
6850;SDS011;3464;42.728;23.296;2024-03-02T08:33:01;56.53;;;28.20;;
6850;SDS011;3464;42.728;23.296;2024-03-02T08:35:28;57.07;;;28.83;;
6850;SDS011;3464;42.728;23.296;2024-03-02T08:37:54;62.27;;;30.70;;
6850;SDS011;3464;42.728;23.296;2024-03-02T08:40:22;60.87;;;29.40;;
6850;SDS011;3464;42.728;23.296;2024-03-02T08:42:49;60.40;;;28.63;;
6850;SDS011;3464;42.728;23.296;2024-03-02T08:45:16;59.57;;;30.50;;
6850;SDS011;3464;42.728;23.296;2024-03-02T08:47:44;57.83;;;28.00;;
6850;SDS011;3464;42.728;23.296;2024-03-02T08:50:11;54.73;;;28.03;;
6850;SDS011;3464;42.728;23.296;2024-03-02T08:52:38;51.07;;;27.00;;
6850;SDS011;3464;42.728;23.296;2024-03-02T08:55:05;51.13;;;27.40;;
6850;SDS011;3464;42.728;23.296;2024-03-02T08:57:32;56.03;;;26.90;;
6850;SDS011;3464;42.728;23.296;2024-03-02T08:59:59;51.57;;;26.17;;
6850;SDS011;3464;42.728;23.296;2024-03-02T09:02:25;61.67;;;27.40;;
6850;SDS011;3464;42.728;23.296;2024-03-02T09:04:52;49.77;;;23.40;;
6850;SDS011;3464;42.728;23.296;2024-03-02T09:07:18;46.50;;;23.07;;
6850;SDS011;3464;42.728;23.296;2024-03-02T09:09:46;48.33;;;24.87;;
6850;SDS011;3464;42.728;23.296;2024-03-02T09:12:13;47.87;;;25.47;;
6850;SDS011;3464;42.728;23.296;2024-03-02T09:17:24;48.83;;;23.50;;
6850;SDS011;3464;42.728;23.296;2024-03-02T09:19:52;59.33;;;24.17;;
6850;SDS011;3464;42.728;23.296;2024-03-02T09:28:31;50.47;;;24.10;;
6850;SDS011;3464;42.728;23.296;2024-03-02T09:31:00;53.10;;;23.83;;
6850;SDS011;3464;42.728;23.296;2024-03-02T09:33:29;47.03;;;23.13;;
6850;SDS011;3464;42.728;23.296;2024-03-02T09:35:56;53.37;;;25.90;;
6850;SDS011;3464;42.728;23.296;2024-03-02T09:38:23;51.20;;;23.70;;
6850;SDS011;3464;42.728;23.296;2024-03-02T09:40:50;48.80;;;23.97;;
6850;SDS011;3464;42.728;23.296;2024-03-02T09:43:16;48.10;;;23.60;;
6850;SDS011;3464;42.728;23.296;2024-03-02T09:45:43;47.47;;;23.37;;
6850;SDS011;3464;42.728;23.296;2024-03-02T09:48:10;48.13;;;22.30;;
6850;SDS011;3464;42.728;23.296;2024-03-02T09:50:38;58.83;;;24.58;;
6850;SDS011;3464;42.728;23.296;2024-03-02T09:53:07;49.90;;;24.43;;
6850;SDS011;3464;42.728;23.296;2024-03-02T09:55:34;51.88;;;26.10;;
6850;SDS011;3464;42.728;23.296;2024-03-02T09:58:02;55.50;;;25.40;;
6850;SDS011;3464;42.728;23.296;2024-03-02T10:00:34;62.30;;;32.10;;
6850;SDS011;3464;42.728;23.296;2024-03-02T10:03:01;44.93;;;23.43;;
6850;SDS011;3464;42.728;23.296;2024-03-02T10:05:27;48.03;;;25.07;;
6850;SDS011;3464;42.728;23.296;2024-03-02T10:07:59;49.60;;;23.57;;
6850;SDS011;3464;42.728;23.296;2024-03-02T10:10:26;40.53;;;22.37;;
6850;SDS011;3464;42.728;23.296;2024-03-02T10:13:03;44.83;;;22.27;;
6850;SDS011;3464;42.728;23.296;2024-03-02T10:15:24;42.30;;;21.97;;
6850;SDS011;3464;42.728;23.296;2024-03-02T10:17:51;49.43;;;24.63;;
6850;SDS011;3464;42.728;23.296;2024-03-02T10:20:22;41.93;;;21.63;;
6850;SDS011;3464;42.728;23.296;2024-03-02T10:22:51;43.85;;;22.50;;
6850;SDS011;3464;42.728;23.296;2024-03-02T10:27:57;48.17;;;22.30;;
6850;SDS011;3464;42.728;23.296;2024-03-02T10:30:24;48.07;;;23.43;;
6850;SDS011;3464;42.728;23.296;2024-03-02T10:32:50;45.90;;;24.43;;
6850;SDS011;3464;42.728;23.296;2024-03-02T10:35:17;49.92;;;22.83;;
6850;SDS011;3464;42.728;23.296;2024-03-02T10:37:44;46.17;;;22.70;;
6850;SDS011;3464;42.728;23.296;2024-03-02T10:40:11;45.53;;;22.13;;
6850;SDS011;3464;42.728;23.296;2024-03-02T10:42:38;43.53;;;21.83;;
6850;SDS011;3464;42.728;23.296;2024-03-02T10:45:05;48.17;;;22.60;;
6850;SDS011;3464;42.728;23.296;2024-03-02T10:47:32;42.23;;;21.60;;
6850;SDS011;3464;42.728;23.296;2024-03-02T10:49:59;45.17;;;21.87;;
6850;SDS011;3464;42.728;23.296;2024-03-02T10:52:26;43.53;;;21.63;;
6850;SDS011;3464;42.728;23.296;2024-03-02T10:54:52;44.00;;;22.75;;
6850;SDS011;3464;42.728;23.296;2024-03-02T10:57:19;42.30;;;21.40;;
6850;SDS011;3464;42.728;23.296;2024-03-02T10:59:51;45.17;;;22.00;;
6850;SDS011;3464;42.728;23.296;2024-03-02T11:02:18;39.10;;;20.10;;
6850;SDS011;3464;42.728;23.296;2024-03-02T11:04:44;41.33;;;20.27;;
6850;SDS011;3464;42.728;23.296;2024-03-02T11:07:11;39.73;;;20.23;;
6850;SDS011;3464;42.728;23.296;2024-03-02T11:09:40;40.10;;;20.73;;
6850;SDS011;3464;42.728;23.296;2024-03-02T11:15:25;43.30;;;21.77;;
6850;SDS011;3464;42.728;23.296;2024-03-02T11:17:51;41.90;;;20.97;;
6850;SDS011;3464;42.728;23.296;2024-03-02T11:20:18;42.43;;;20.40;;
6850;SDS011;3464;42.728;23.296;2024-03-02T11:22:45;39.03;;;19.60;;
6850;SDS011;3464;42.728;23.296;2024-03-02T11:28:01;43.80;;;20.60;;
6850;SDS011;3464;42.728;23.296;2024-03-02T11:33:16;45.67;;;23.07;;
6850;SDS011;3464;42.728;23.296;2024-03-02T11:35:43;37.37;;;19.47;;
6850;SDS011;3464;42.728;23.296;2024-03-02T11:38:09;40.03;;;19.30;;
6850;SDS011;3464;42.728;23.296;2024-03-02T11:40:35;38.00;;;18.10;;
6850;SDS011;3464;42.728;23.296;2024-03-02T11:43:02;38.83;;;17.80;;
6850;SDS011;3464;42.728;23.296;2024-03-02T11:45:30;41.57;;;20.00;;
6850;SDS011;3464;42.728;23.296;2024-03-02T11:47:57;38.83;;;19.37;;
6850;SDS011;3464;42.728;23.296;2024-03-02T11:50:29;36.27;;;19.07;;
6850;SDS011;3464;42.728;23.296;2024-03-02T11:52:59;38.55;;;19.12;;
6850;SDS011;3464;42.728;23.296;2024-03-02T11:55:26;36.70;;;18.80;;
6850;SDS011;3464;42.728;23.296;2024-03-02T11:57:53;41.30;;;18.33;;
6850;SDS011;3464;42.728;23.296;2024-03-02T12:00:19;37.57;;;18.80;;
6850;SDS011;3464;42.728;23.296;2024-03-02T12:02:46;37.83;;;19.30;;
6850;SDS011;3464;42.728;23.296;2024-03-02T12:05:13;37.10;;;18.57;;
6850;SDS011;3464;42.728;23.296;2024-03-02T12:07:41;34.20;;;17.93;;
6850;SDS011;3464;42.728;23.296;2024-03-02T12:10:08;38.80;;;18.97;;
6850;SDS011;3464;42.728;23.296;2024-03-02T12:12:34;38.20;;;19.23;;
6850;SDS011;3464;42.728;23.296;2024-03-02T12:15:01;41.60;;;19.00;;
6850;SDS011;3464;42.728;23.296;2024-03-02T12:17:28;38.40;;;19.33;;
6850;SDS011;3464;42.728;23.296;2024-03-02T12:19:54;40.17;;;19.40;;
6850;SDS011;3464;42.728;23.296;2024-03-02T12:22:21;35.20;;;17.40;;
6850;SDS011;3464;42.728;23.296;2024-03-02T12:24:47;40.10;;;19.90;;
6850;SDS011;3464;42.728;23.296;2024-03-02T12:27:14;39.13;;;19.03;;
6850;SDS011;3464;42.728;23.296;2024-03-02T12:29:42;38.07;;;18.73;;
6850;SDS011;3464;42.728;23.296;2024-03-02T12:32:09;38.23;;;18.40;;
6850;SDS011;3464;42.728;23.296;2024-03-02T12:34:35;32.30;;;17.67;;
6850;SDS011;3464;42.728;23.296;2024-03-02T12:37:02;40.07;;;19.53;;
6850;SDS011;3464;42.728;23.296;2024-03-02T12:39:29;36.17;;;19.00;;
6850;SDS011;3464;42.728;23.296;2024-03-02T12:41:58;36.73;;;19.20;;
6850;SDS011;3464;42.728;23.296;2024-03-02T12:44:25;39.20;;;18.60;;
6850;SDS011;3464;42.728;23.296;2024-03-02T12:46:51;35.53;;;16.80;;
6850;SDS011;3464;42.728;23.296;2024-03-02T12:49:21;36.25;;;17.35;;
6850;SDS011;3464;42.728;23.296;2024-03-02T12:51:44;37.80;;;17.37;;
6850;SDS011;3464;42.728;23.296;2024-03-02T12:54:12;44.20;;;18.20;;
6850;SDS011;3464;42.728;23.296;2024-03-02T12:56:40;39.67;;;19.50;;
6850;SDS011;3464;42.728;23.296;2024-03-02T12:59:06;31.70;;;15.50;;
6850;SDS011;3464;42.728;23.296;2024-03-02T13:01:33;33.67;;;16.90;;
6850;SDS011;3464;42.728;23.296;2024-03-02T13:03:59;35.40;;;17.37;;
6850;SDS011;3464;42.728;23.296;2024-03-02T13:06:26;34.80;;;16.60;;
6850;SDS011;3464;42.728;23.296;2024-03-02T13:08:53;34.93;;;17.60;;
6850;SDS011;3464;42.728;23.296;2024-03-02T13:11:20;32.37;;;16.47;;
6850;SDS011;3464;42.728;23.296;2024-03-02T13:13:46;35.03;;;17.37;;
6850;SDS011;3464;42.728;23.296;2024-03-02T13:16:12;34.87;;;17.50;;
6850;SDS011;3464;42.728;23.296;2024-03-02T13:18:42;33.80;;;16.47;;
6850;SDS011;3464;42.728;23.296;2024-03-02T13:21:09;32.93;;;17.17;;
6850;SDS011;3464;42.728;23.296;2024-03-02T13:23:35;35.13;;;18.10;;
6850;SDS011;3464;42.728;23.296;2024-03-02T13:26:02;36.30;;;17.63;;
6850;SDS011;3464;42.728;23.296;2024-03-02T13:28:29;34.57;;;17.33;;
6850;SDS011;3464;42.728;23.296;2024-03-02T13:30:56;31.47;;;16.37;;
6850;SDS011;3464;42.728;23.296;2024-03-02T13:33:23;32.95;;;16.58;;
6850;SDS011;3464;42.728;23.296;2024-03-02T13:35:51;33.17;;;16.77;;
6850;SDS011;3464;42.728;23.296;2024-03-02T13:38:18;33.10;;;16.47;;
6850;SDS011;3464;42.728;23.296;2024-03-02T13:40:44;33.33;;;16.47;;
6850;SDS011;3464;42.728;23.296;2024-03-02T13:43:11;32.25;;;15.80;;
6850;SDS011;3464;42.728;23.296;2024-03-02T13:45:38;36.87;;;18.57;;
6850;SDS011;3464;42.728;23.296;2024-03-02T13:48:04;31.63;;;16.77;;
6850;SDS011;3464;42.728;23.296;2024-03-02T13:50:31;31.97;;;16.30;;
6850;SDS011;3464;42.728;23.296;2024-03-02T13:52:59;31.60;;;16.43;;
6850;SDS011;3464;42.728;23.296;2024-03-02T13:55:27;32.77;;;17.27;;
6850;SDS011;3464;42.728;23.296;2024-03-02T13:57:53;30.20;;;15.87;;
6850;SDS011;3464;42.728;23.296;2024-03-02T14:03:21;31.48;;;16.35;;
6850;SDS011;3464;42.728;23.296;2024-03-02T14:05:47;32.63;;;16.37;;
6850;SDS011;3464;42.728;23.296;2024-03-02T14:08:14;30.00;;;15.73;;
6850;SDS011;3464;42.728;23.296;2024-03-02T14:10:40;27.23;;;15.05;;
6850;SDS011;3464;42.728;23.296;2024-03-02T14:13:07;30.30;;;16.20;;
6850;SDS011;3464;42.728;23.296;2024-03-02T14:15:33;29.17;;;15.87;;
6850;SDS011;3464;42.728;23.296;2024-03-02T14:18:04;33.13;;;16.17;;
6850;SDS011;3464;42.728;23.296;2024-03-02T14:20:31;31.73;;;16.50;;
6850;SDS011;3464;42.728;23.296;2024-03-02T14:22:58;35.60;;;16.50;;
6850;SDS011;3464;42.728;23.296;2024-03-02T14:25:26;31.60;;;16.70;;
6850;SDS011;3464;42.728;23.296;2024-03-02T14:27:52;34.63;;;16.57;;
6850;SDS011;3464;42.728;23.296;2024-03-02T14:30:19;31.60;;;17.03;;
6850;SDS011;3464;42.728;23.296;2024-03-02T14:32:45;31.70;;;16.23;;
6850;SDS011;3464;42.728;23.296;2024-03-02T14:35:12;36.90;;;16.85;;
6850;SDS011;3464;42.728;23.296;2024-03-02T14:37:38;36.50;;;17.83;;
6850;SDS011;3464;42.728;23.296;2024-03-02T14:40:05;34.00;;;17.53;;
6850;SDS011;3464;42.728;23.296;2024-03-02T14:42:32;34.47;;;18.93;;
6850;SDS011;3464;42.728;23.296;2024-03-02T14:44:59;36.00;;;18.30;;
6850;SDS011;3464;42.728;23.296;2024-03-02T14:47:25;34.90;;;19.00;;
6850;SDS011;3464;42.728;23.296;2024-03-02T14:49:52;37.73;;;18.47;;
6850;SDS011;3464;42.728;23.296;2024-03-02T14:52:19;36.10;;;19.80;;
6850;SDS011;3464;42.728;23.296;2024-03-02T14:54:45;36.53;;;18.73;;
6850;SDS011;3464;42.728;23.296;2024-03-02T16:05:41;34.53;;;18.20;;
6850;SDS011;3464;42.728;23.296;2024-03-02T16:08:08;35.90;;;19.70;;
6850;SDS011;3464;42.728;23.296;2024-03-02T16:10:35;34.35;;;17.83;;
6850;SDS011;3464;42.728;23.296;2024-03-02T16:13:02;32.33;;;17.53;;
6850;SDS011;3464;42.728;23.296;2024-03-02T16:15:29;36.13;;;18.20;;
6850;SDS011;3464;42.728;23.296;2024-03-02T16:17:56;34.93;;;18.40;;
6850;SDS011;3464;42.728;23.296;2024-03-02T16:20:22;30.92;;;17.33;;
6850;SDS011;3464;42.728;23.296;2024-03-02T16:22:49;33.77;;;18.20;;
6850;SDS011;3464;42.728;23.296;2024-03-02T16:25:16;31.77;;;17.10;;